createdAt,value
2023-04-18T00:00:15.426Z,1.80
2023-04-18T00:03:22.557Z,1.80
2023-04-18T00:06:31.199Z,2.00
2023-04-18T00:09:46.605Z,1.80
2023-04-18T00:12:31.930Z,1.80
2023-04-18T00:15:27.012Z,1.80
2023-04-18T00:18:43.636Z,1.50
2023-04-18T00:22:19.863Z,1.70
2023-04-18T00:25:28.911Z,1.80
2023-04-18T00:28:21.102Z,2.00
2023-04-18T00:31:06.098Z,1.80
2023-04-18T00:34:24.279Z,1.60
2023-04-18T00:37:07.402Z,1.90
2023-04-18T00:39:40.610Z,2.10
2023-04-18T00:42:14.601Z,2.00
2023-04-18T00:44:53.531Z,2.00
2023-04-18T00:47:30.251Z,1.90
2023-04-18T00:50:16.298Z,1.60
2023-04-18T00:53:01.785Z,1.60
2023-04-18T00:55:37.522Z,1.40
2023-04-18T00:58:13.921Z,1.90
2023-04-18T01:00:58.752Z,2.00
2023-04-18T01:03:35.416Z,1.90
2023-04-18T01:06:18.528Z,1.60
2023-04-18T01:09:23.250Z,2.00
2023-04-18T01:12:12.569Z,2.00
2023-04-18T01:14:52.423Z,1.80
2023-04-18T01:17:42.960Z,1.70
2023-04-18T01:20:24.973Z,1.90
2023-04-18T01:23:26.913Z,1.80
2023-04-18T01:26:08.959Z,1.80
2023-04-18T01:29:02.658Z,1.60
2023-04-18T01:31:51.385Z,1.80
2023-04-18T01:34:43.845Z,1.80
2023-04-18T01:37:44.725Z,1.90
2023-04-18T01:40:30.132Z,1.80
2023-04-18T01:43:28.106Z,1.60
2023-04-18T01:46:35.334Z,2.10
2023-04-18T01:49:29.325Z,2.10
2023-04-18T01:52:30.317Z,1.90
2023-04-18T01:55:22.877Z,1.80
2023-04-18T01:58:29.666Z,1.80
2023-04-18T02:01:39.203Z,1.90
2023-04-18T02:04:48.745Z,2.00
2023-04-18T02:08:08.389Z,1.80
2023-04-18T02:10:53.875Z,1.60
2023-04-18T02:13:38.243Z,1.70
2023-04-18T02:16:25.860Z,2.30
2023-04-18T02:19:09.156Z,2.00
2023-04-18T02:21:56.215Z,2.00
2023-04-18T02:24:36.374Z,1.80
2023-04-18T02:27:28.511Z,1.80
2023-04-18T02:30:15.446Z,2.00
2023-04-18T02:33:10.629Z,1.70
2023-04-18T02:36:28.712Z,1.70
2023-04-18T02:39:10.275Z,1.70
2023-04-18T02:42:07.723Z,2.10
2023-04-18T02:45:03.382Z,1.70
2023-04-18T02:48:09.879Z,1.50
2023-04-18T02:50:54.787Z,1.60
2023-04-18T02:53:53.786Z,1.70
2023-04-18T02:56:45.515Z,1.70
2023-04-18T02:59:41.029Z,1.70
2023-04-18T03:02:43.437Z,1.80
2023-04-18T03:05:59.502Z,1.60
2023-04-18T03:11:23.644Z,2.00
2023-04-18T03:14:12.180Z,1.80
2023-04-18T03:16:55.583Z,1.90
2023-04-18T03:19:52.626Z,1.70
2023-04-18T03:22:29.731Z,1.90
2023-04-18T03:25:12.210Z,2.30
2023-04-18T03:28:07.924Z,2.10
2023-04-18T03:31:31.774Z,2.10
2023-04-18T03:34:07.555Z,1.90
2023-04-18T03:36:42.709Z,2.20
2023-04-18T03:39:42.514Z,1.80
2023-04-18T03:42:18.459Z,2.10
2023-04-18T03:45:03.660Z,2.10
2023-04-18T03:48:00.993Z,2.20
2023-04-18T03:50:49.949Z,2.20
2023-04-18T03:53:26.869Z,2.10
2023-04-18T03:56:22.992Z,2.30
2023-04-18T03:59:18.708Z,2.00
2023-04-18T04:02:20.689Z,2.00
2023-04-18T04:05:39.411Z,1.90
2023-04-18T04:08:30.991Z,2.10
2023-04-18T04:11:27.163Z,2.00
2023-04-18T04:14:14.414Z,2.10
2023-04-18T04:19:59.210Z,1.90
2023-04-18T04:22:49.488Z,2.30
2023-04-18T04:25:27.495Z,2.10
2023-04-18T04:28:16.222Z,2.10
2023-04-18T04:31:08.218Z,2.00
2023-04-18T04:33:54.659Z,2.10
2023-04-18T04:36:51.874Z,2.30
2023-04-18T04:39:35.072Z,2.10
2023-04-18T04:42:34.577Z,2.20
2023-04-18T04:45:17.202Z,2.00
2023-04-18T04:48:07.118Z,2.10
2023-04-18T04:51:00.793Z,2.60
2023-04-18T04:53:49.545Z,2.80
2023-04-18T04:56:45.988Z,2.80
2023-04-18T04:59:34.340Z,2.70
2023-04-18T05:02:22.238Z,2.80
2023-04-18T05:05:14.614Z,2.60
2023-04-18T05:07:55.706Z,2.60
2023-04-18T05:11:01.581Z,2.20
2023-04-18T05:13:40.536Z,2.10
2023-04-18T05:19:51.220Z,2.00
2023-04-18T05:22:38.032Z,2.50
2023-04-18T05:25:41.784Z,2.50
2023-04-18T05:28:31.466Z,2.80
2023-04-18T05:31:31.013Z,2.60
2023-04-18T05:34:22.344Z,2.50
2023-04-18T05:37:12.417Z,2.80
2023-04-18T05:39:54.290Z,3.00
2023-04-18T05:42:39.755Z,2.50
2023-04-18T05:45:16.214Z,2.40
2023-04-18T05:48:08.647Z,2.60
2023-04-18T05:53:47.874Z,2.50
2023-04-18T05:56:50.798Z,2.30
2023-04-18T05:59:32.722Z,2.40
2023-04-18T06:02:41.351Z,2.50
2023-04-18T06:05:22.932Z,2.50
2023-04-18T06:08:11.195Z,2.20
2023-04-18T06:10:57.030Z,2.60
2023-04-18T06:13:58.426Z,2.50
2023-04-18T06:16:50.894Z,2.60
2023-04-18T06:19:37.556Z,2.60
2023-04-18T06:22:46.068Z,2.60
2023-04-18T06:25:44.876Z,2.50
2023-04-18T06:28:51.112Z,2.60
2023-04-18T06:31:43.967Z,2.90
2023-04-18T06:34:39.417Z,2.60
2023-04-18T06:37:26.806Z,2.60
2023-04-18T06:40:10.317Z,2.50
2023-04-18T06:42:57.314Z,3.00
2023-04-18T06:45:44.924Z,2.40
2023-04-18T06:48:37.826Z,2.40
2023-04-18T06:51:43.342Z,2.40
2023-04-18T06:54:23.117Z,2.70
2023-04-18T06:57:12.192Z,2.40
2023-04-18T06:59:55.957Z,2.10
2023-04-18T07:02:54.774Z,2.30
2023-04-18T07:05:43.189Z,2.20
2023-04-18T07:08:40.599Z,2.50
2023-04-18T07:11:41.350Z,2.20
2023-04-18T07:14:39.839Z,2.10
2023-04-18T07:17:29.072Z,2.20
2023-04-18T07:20:11.618Z,2.10
2023-04-18T07:22:59.687Z,2.10
2023-04-18T07:25:44.154Z,2.30
2023-04-18T07:28:34.208Z,2.60
2023-04-18T07:31:29.503Z,2.30
2023-04-18T07:34:13.601Z,2.10
2023-04-18T07:37:06.617Z,2.00
2023-04-18T07:40:11.752Z,1.90
2023-04-18T07:42:57.751Z,1.80
2023-04-18T07:45:58.504Z,2.70
2023-04-18T07:48:40.807Z,2.00
2023-04-18T07:51:32.525Z,2.00
2023-04-18T07:54:27.129Z,2.10
2023-04-18T07:57:23.453Z,1.80
2023-04-18T08:00:08.114Z,2.00
2023-04-18T08:03:01.389Z,2.00
2023-04-18T08:05:55.998Z,2.40
2023-04-18T08:08:52.322Z,2.20
2023-04-18T08:11:36.277Z,2.00
2023-04-18T08:14:37.845Z,1.90
2023-04-18T08:17:23.930Z,1.90
2023-04-18T08:20:14.536Z,2.20
2023-04-18T08:25:49.369Z,1.90
2023-04-18T08:28:33.227Z,2.20
2023-04-18T08:31:46.968Z,1.80
2023-04-18T08:34:34.111Z,1.90
2023-04-18T08:37:26.255Z,1.70
2023-04-18T08:40:23.993Z,1.80
2023-04-18T08:43:20.166Z,1.80
2023-04-18T08:46:13.520Z,1.70
2023-04-18T08:49:16.554Z,1.70
2023-04-18T08:52:03.744Z,2.00
2023-04-18T08:54:50.700Z,1.90
2023-04-18T08:58:46.326Z,1.90
2023-04-18T09:01:31.324Z,1.90
2023-04-18T09:05:05.757Z,1.90
2023-04-18T09:08:22.673Z,1.90
2023-04-18T09:11:38.465Z,1.80
2023-04-18T09:14:38.870Z,1.80
2023-04-18T09:17:52.621Z,2.20
2023-04-18T09:20:59.595Z,1.90
2023-04-18T09:25:27.778Z,2.00
2023-04-18T09:28:01.054Z,1.90
2023-04-18T09:31:02.436Z,2.10
2023-04-18T09:34:08.101Z,1.90
2023-04-18T09:37:15.290Z,2.00
2023-04-18T09:40:35.485Z,1.90
2023-04-18T09:43:45.698Z,1.70
2023-04-18T09:46:55.787Z,1.90
2023-04-18T09:50:02.923Z,1.90
2023-04-18T09:52:55.350Z,1.90
2023-04-18T09:56:04.563Z,2.00
2023-04-18T09:59:10.296Z,2.00
2023-04-18T10:02:13.497Z,2.00
2023-04-18T10:05:13.287Z,2.00
2023-04-18T10:08:24.211Z,2.00
2023-04-18T10:11:35.477Z,2.20
2023-04-18T10:14:29.457Z,2.20
2023-04-18T10:17:24.507Z,1.90
2023-04-18T10:20:25.023Z,2.20
2023-04-18T10:24:03.295Z,2.10
2023-04-18T10:27:14.057Z,1.90
2023-04-18T10:30:09.322Z,2.00
2023-04-18T10:33:29.917Z,1.80
2023-04-18T10:36:27.647Z,2.10
2023-04-18T10:39:48.405Z,1.90
2023-04-18T10:43:12.914Z,2.30
2023-04-18T10:46:28.005Z,2.00
2023-04-18T10:49:44.279Z,1.90
2023-04-18T10:52:43.032Z,1.90
2023-04-18T10:55:50.877Z,2.40
2023-04-18T11:02:06.813Z,2.00
2023-04-18T11:05:11.839Z,2.00
2023-04-18T11:08:00.580Z,2.10
2023-04-18T11:11:09.684Z,2.30
2023-04-18T11:14:06.248Z,2.60
2023-04-18T11:16:55.040Z,3.00
2023-04-18T11:20:19.649Z,2.30
2023-04-18T11:23:00.129Z,2.20
2023-04-18T11:25:45.705Z,2.20
2023-04-18T11:28:55.671Z,2.00
2023-04-18T11:32:02.649Z,2.10
2023-04-18T11:35:14.419Z,2.30
2023-04-18T11:37:57.319Z,2.30
2023-04-18T11:41:22.081Z,2.30
2023-04-18T11:44:01.718Z,2.30
2023-04-18T11:46:53.204Z,2.30
2023-04-18T11:52:37.428Z,2.40
2023-04-18T11:56:09.638Z,1.90
2023-04-18T11:58:54.962Z,2.20
2023-04-18T12:02:33.751Z,2.20
2023-04-18T12:05:52.098Z,2.10
2023-04-18T12:08:34.957Z,2.40
2023-04-18T12:11:31.083Z,2.10
2023-04-18T12:21:14.941Z,2.20
2023-04-18T12:24:02.318Z,2.50
2023-04-18T12:27:30.244Z,1.70
2023-04-18T12:34:14.712Z,2.10
2023-04-18T12:40:33.995Z,2.00
2023-04-18T12:43:11.755Z,2.20
2023-04-18T12:45:51.935Z,2.20
2023-04-18T12:48:53.130Z,2.20
2023-04-18T12:52:07.318Z,2.50
2023-04-18T12:54:40.191Z,2.10
2023-04-18T12:57:09.019Z,2.20
2023-04-18T12:59:37.189Z,2.30
2023-04-18T13:02:07.055Z,2.40
2023-04-18T13:04:35.832Z,2.20
2023-04-18T13:07:04.486Z,2.20
2023-04-18T13:09:32.967Z,2.30
2023-04-18T13:12:02.283Z,2.10
2023-04-18T13:14:30.658Z,2.20
2023-04-18T13:16:59.174Z,2.20
2023-04-18T13:19:27.423Z,2.30
2023-04-18T13:21:55.788Z,2.20
2023-04-18T13:24:23.966Z,2.20
2023-04-18T13:26:52.238Z,2.20
2023-04-18T13:29:20.353Z,2.40
2023-04-18T13:31:48.502Z,2.50
2023-04-18T13:34:16.756Z,2.40
2023-04-18T13:36:44.937Z,2.40
2023-04-18T13:41:43.228Z,2.20
2023-04-18T13:44:11.177Z,2.20
2023-04-18T13:46:39.447Z,2.50
2023-04-18T13:49:07.570Z,2.20
2023-04-18T13:51:36.231Z,2.50
2023-04-18T13:54:04.410Z,2.00
2023-04-18T13:56:32.518Z,1.90
2023-04-18T13:59:00.663Z,2.00
2023-04-18T14:01:29.090Z,1.90
2023-04-18T14:03:57.529Z,2.10
2023-04-18T14:06:27.754Z,2.20
2023-04-18T14:08:56.030Z,2.40
2023-04-18T14:11:24.295Z,2.00
2023-04-18T14:13:52.911Z,2.20
2023-04-18T14:16:24.107Z,2.30
2023-04-18T14:18:53.989Z,2.40
2023-04-18T14:21:22.630Z,2.20
2023-04-18T14:23:55.313Z,2.20
2023-04-18T14:26:23.905Z,1.80
2023-04-18T14:28:52.990Z,2.00
2023-04-18T14:31:22.396Z,2.40
2023-04-18T14:33:51.187Z,2.20
2023-04-18T14:36:22.637Z,1.90
2023-04-18T14:38:54.778Z,2.00
2023-04-18T14:41:25.160Z,2.10
2023-04-18T14:43:53.564Z,1.80
2023-04-18T14:46:43.013Z,2.20
2023-04-18T14:49:13.693Z,2.30
2023-04-18T14:51:42.153Z,2.30
2023-04-18T14:54:13.928Z,2.40
2023-04-18T14:56:44.789Z,1.90
2023-04-18T14:59:16.318Z,2.00
2023-04-18T15:01:47.554Z,2.20
2023-04-18T15:04:21.179Z,1.90
2023-04-18T15:06:50.230Z,2.50
2023-04-18T15:09:21.023Z,2.60
2023-04-18T15:12:00.542Z,2.30
2023-04-18T15:14:43.892Z,2.20
2023-04-18T15:17:21.248Z,2.00
2023-04-18T15:19:51.821Z,1.90
2023-04-18T15:22:40.425Z,2.10
2023-04-18T15:25:16.458Z,1.90
2023-04-18T15:27:44.984Z,2.60
2023-04-18T15:30:16.297Z,2.30
2023-04-18T15:32:54.784Z,2.10
2023-04-18T15:35:26.304Z,2.40
2023-04-18T15:38:07.702Z,2.40
2023-04-18T15:40:59.511Z,2.50
2023-04-18T15:43:27.719Z,2.60
2023-04-18T15:45:56.179Z,2.70
2023-04-18T15:48:24.205Z,2.70
2023-04-18T15:50:53.027Z,2.10
2023-04-18T15:53:21.622Z,2.50
2023-04-18T15:55:51.010Z,2.10
2023-04-18T15:58:20.736Z,2.50
2023-04-18T16:00:50.309Z,2.60
2023-04-18T16:03:18.580Z,2.60
2023-04-18T16:05:47.706Z,2.50
2023-04-18T16:08:15.980Z,2.20
2023-04-18T16:10:44.121Z,2.60
2023-04-18T16:13:12.240Z,2.30
2023-04-18T16:15:43.783Z,2.30
2023-04-18T16:18:11.956Z,2.50
2023-04-18T16:20:42.961Z,2.20
2023-04-18T16:23:11.023Z,2.30
2023-04-18T16:25:39.280Z,2.20
2023-04-18T16:28:07.435Z,2.80
2023-04-18T16:30:35.595Z,2.10
2023-04-18T16:33:04.159Z,2.50
2023-04-18T16:35:32.534Z,2.60
2023-04-18T16:38:00.835Z,3.00
2023-04-18T16:40:30.751Z,2.80
2023-04-18T16:42:58.924Z,3.10
2023-04-18T16:45:27.246Z,4.00
2023-04-18T16:47:55.644Z,3.90
2023-04-18T16:50:24.892Z,3.80
2023-04-18T16:52:53.295Z,3.50
2023-04-18T16:55:21.574Z,3.50
2023-04-18T16:57:49.972Z,3.20
2023-04-18T17:00:18.302Z,2.70
2023-04-18T17:02:47.284Z,2.90
2023-04-18T17:07:45.701Z,2.10
2023-04-18T17:10:13.757Z,2.40
2023-04-18T17:12:41.798Z,2.60
2023-04-18T17:15:11.022Z,2.40
2023-04-18T17:20:08.268Z,2.20
2023-04-18T17:25:05.463Z,2.50
2023-04-18T17:27:36.573Z,2.80
2023-04-18T17:30:05.053Z,2.70
2023-04-18T17:32:33.582Z,3.00
2023-04-18T17:35:05.024Z,3.00
2023-04-18T17:37:33.937Z,2.60
2023-04-18T17:40:06.620Z,2.30
2023-04-18T17:42:34.869Z,2.30
2023-04-18T17:45:07.724Z,2.60
2023-04-18T17:47:36.745Z,2.20
2023-04-18T17:50:05.997Z,2.30
2023-04-18T17:52:34.118Z,2.10
2023-04-18T17:55:02.356Z,2.50
2023-04-18T17:57:30.980Z,2.60
2023-04-18T17:59:59.377Z,2.70
2023-04-18T18:02:28.590Z,2.30
2023-04-18T18:04:57.690Z,2.40
2023-04-18T18:07:26.554Z,2.50
2023-04-18T18:09:56.304Z,2.70
2023-04-18T18:12:25.050Z,2.60
2023-04-18T18:14:53.430Z,3.00
2023-04-18T18:17:22.117Z,2.80
2023-04-18T18:19:50.399Z,2.70
2023-04-18T18:22:18.765Z,2.70
2023-04-18T18:24:47.009Z,2.70
2023-04-18T18:27:15.834Z,2.50
2023-04-18T18:29:44.006Z,2.50
2023-04-18T18:32:12.591Z,2.50
2023-04-18T18:34:40.636Z,2.50
2023-04-18T18:37:08.736Z,2.50
2023-04-18T18:39:36.832Z,2.60
2023-04-18T18:42:05.093Z,2.60
2023-04-18T18:44:33.853Z,2.80
2023-04-18T18:47:01.987Z,2.60
2023-04-18T18:49:30.236Z,2.70
2023-04-18T18:51:58.561Z,2.60
2023-04-18T18:54:32.503Z,2.80
2023-04-18T18:57:02.685Z,2.70
2023-04-18T18:59:31.023Z,2.50
2023-04-18T19:02:10.257Z,2.40
2023-04-18T19:04:38.809Z,2.80
2023-04-18T19:07:07.287Z,2.20
2023-04-18T19:09:36.941Z,2.50
2023-04-18T19:12:08.826Z,2.40
2023-04-18T19:14:37.222Z,2.30
2023-04-18T19:17:05.381Z,2.40
2023-04-18T19:19:33.460Z,2.50
2023-04-18T19:22:01.900Z,2.40
2023-04-18T19:24:38.870Z,2.50
2023-04-18T19:27:10.224Z,2.70
2023-04-18T19:29:39.473Z,2.50
2023-04-18T19:32:07.800Z,2.60
2023-04-18T19:34:36.189Z,2.50
2023-04-18T19:37:04.663Z,2.10
2023-04-18T19:39:32.927Z,2.40
2023-04-18T19:42:02.858Z,2.90
2023-04-18T19:44:31.642Z,2.60
2023-04-18T19:46:59.763Z,3.10
2023-04-18T19:49:35.678Z,2.70
2023-04-18T19:52:04.082Z,3.60
2023-04-18T19:54:35.923Z,3.20
2023-04-18T19:57:04.811Z,3.80
2023-04-18T19:59:32.842Z,4.20
2023-04-18T20:02:05.058Z,4.00
2023-04-18T20:04:34.613Z,4.00
2023-04-18T20:07:03.358Z,4.00
2023-04-18T20:09:31.430Z,4.50
2023-04-18T20:12:02.075Z,4.50
2023-04-18T20:14:30.321Z,4.20
2023-04-18T20:16:58.844Z,5.60
2023-04-18T20:19:27.014Z,4.80
2023-04-18T20:21:55.363Z,4.00
2023-04-18T20:24:28.227Z,3.90
2023-04-18T20:26:59.548Z,3.40
2023-04-18T20:29:28.264Z,3.60
2023-04-18T20:31:56.462Z,3.90
2023-04-18T20:34:24.884Z,3.80
2023-04-18T20:36:53.076Z,3.50
2023-04-18T20:39:21.326Z,3.50
2023-04-18T20:41:50.788Z,3.90
2023-04-18T20:44:22.360Z,3.20
2023-04-18T20:46:53.539Z,3.40
2023-04-18T20:49:21.707Z,2.90
2023-04-18T20:51:50.001Z,3.00
2023-04-18T20:54:18.123Z,2.90
2023-04-18T20:56:46.945Z,2.80
2023-04-18T20:59:15.195Z,3.10
2023-04-18T21:01:43.277Z,3.20
2023-04-18T21:04:11.723Z,3.50
2023-04-18T21:06:39.986Z,3.50
2023-04-18T21:09:09.054Z,3.30
2023-04-18T21:11:37.227Z,3.40
2023-04-18T21:14:06.916Z,3.60
2023-04-18T21:16:39.532Z,3.80
2023-04-18T21:19:08.546Z,3.90
2023-04-18T21:21:36.882Z,3.80
2023-04-18T21:24:05.899Z,3.50
2023-04-18T21:26:34.062Z,4.00
2023-04-18T21:29:06.932Z,3.80
2023-04-18T21:31:38.125Z,3.60
2023-04-18T21:34:06.703Z,3.50
2023-04-18T21:36:34.944Z,4.00
2023-04-18T21:39:04.149Z,3.70
2023-04-18T21:44:00.498Z,3.40
2023-04-18T21:46:31.230Z,4.00
2023-04-18T21:48:59.607Z,3.70
2023-04-18T21:51:28.293Z,3.80
2023-04-18T21:53:56.267Z,3.90
2023-04-18T21:56:24.643Z,3.80
2023-04-18T21:58:53.016Z,3.40
2023-04-18T22:01:21.446Z,3.60
2023-04-18T22:03:50.293Z,3.60
2023-04-18T22:06:18.593Z,3.50
2023-04-18T22:08:46.941Z,3.20
2023-04-18T22:11:15.771Z,3.00
2023-04-18T22:13:45.051Z,3.60
2023-04-18T22:16:13.354Z,3.50
2023-04-18T22:18:41.712Z,3.40
2023-04-18T22:21:10.165Z,3.80
2023-04-18T22:23:38.451Z,3.50
2023-04-18T22:26:06.724Z,3.90
2023-04-18T22:28:35.002Z,3.70
2023-04-18T22:31:03.410Z,3.50
2023-04-18T22:33:31.709Z,3.60
2023-04-18T22:36:00.833Z,3.80
2023-04-18T22:38:29.233Z,3.40
2023-04-18T22:40:58.962Z,3.00
2023-04-18T22:43:27.128Z,2.90
2023-04-18T22:45:55.418Z,3.60
2023-04-18T22:48:23.774Z,3.80
2023-04-18T22:50:51.972Z,3.30
2023-04-18T22:53:20.533Z,3.00
2023-04-18T22:55:48.909Z,3.30
2023-04-18T22:58:20.040Z,3.10
2023-04-18T23:00:48.189Z,3.30
2023-04-18T23:03:16.430Z,3.50
2023-04-18T23:05:44.787Z,2.90
2023-04-18T23:08:13.676Z,3.30
2023-04-18T23:10:41.953Z,3.40
2023-04-18T23:13:12.588Z,2.80
2023-04-18T23:15:41.179Z,3.50
2023-04-18T23:18:09.321Z,3.30
2023-04-18T23:20:39.882Z,3.30
2023-04-18T23:23:17.173Z,3.10
2023-04-18T23:25:48.813Z,3.70
2023-04-18T23:28:22.729Z,3.00
2023-04-18T23:30:51.003Z,3.40
2023-04-18T23:33:22.557Z,3.60
2023-04-18T23:36:03.292Z,4.00
2023-04-18T23:38:31.536Z,3.40
2023-04-18T23:40:59.779Z,4.10
2023-04-18T23:43:28.140Z,4.10
2023-04-18T23:46:05.520Z,3.20
2023-04-18T23:48:33.854Z,3.10
2023-04-18T23:51:25.035Z,3.30
2023-04-18T23:53:56.609Z,3.40
2023-04-18T23:56:24.904Z,3.50
2023-04-18T23:58:56.999Z,3.40
